createdAt,value
2019-02-27T00:02:57.680Z,103402.10
2019-02-27T00:06:00.887Z,103400.88
2019-02-27T00:09:04.114Z,103399.54
2019-02-27T00:12:07.240Z,103397.85
2019-02-27T00:15:10.768Z,103395.12
2019-02-27T00:18:14.072Z,103394.30
2019-02-27T00:21:17.251Z,103391.86
2019-02-27T00:24:20.568Z,103392.36
2019-02-27T00:27:23.863Z,103390.88
2019-02-27T00:30:27.067Z,103391.14
2019-02-27T00:33:30.335Z,103395.10
2019-02-27T00:36:33.459Z,103393.68
2019-02-27T00:39:36.616Z,103391.85
2019-02-27T00:42:39.717Z,103392.47
2019-02-27T00:45:42.915Z,103392.67
2019-02-27T00:48:46.022Z,103397.24
2019-02-27T00:51:49.226Z,103397.91
2019-02-27T00:54:52.313Z,103391.62
2019-02-27T00:57:55.495Z,103393.41
2019-02-27T01:00:58.688Z,103394.44
2019-02-27T01:04:02.517Z,103395.07
2019-02-27T01:07:04.958Z,103391.29
2019-02-27T01:10:12.008Z,103387.93
2019-02-27T01:13:11.758Z,103385.66
2019-02-27T01:16:16.957Z,103383.13
2019-02-27T01:19:18.047Z,103379.60
2019-02-27T01:22:21.245Z,103379.99
2019-02-27T01:25:24.431Z,103376.79
2019-02-27T01:28:27.740Z,103371.21
2019-02-27T01:31:30.942Z,103368.53
2019-02-27T01:34:34.037Z,103366.96
2019-02-27T01:37:37.224Z,103358.34
2019-02-27T01:40:40.440Z,103356.24
2019-02-27T01:43:43.620Z,103349.47
2019-02-27T01:46:46.794Z,103344.89
2019-02-27T01:49:50.011Z,103349.19
2019-02-27T01:52:53.209Z,103345.28
2019-02-27T01:55:56.947Z,103348.05
2019-02-27T01:58:59.692Z,103345.66
2019-02-27T02:02:03.461Z,103346.13
2019-02-27T02:05:06.187Z,103332.19
2019-02-27T02:08:13.459Z,103329.20
2019-02-27T02:11:12.567Z,103332.85
2019-02-27T02:14:25.583Z,103328.40
2019-02-27T02:19:37.356Z,103324.58
2019-02-27T02:23:26.107Z,103318.78
2019-02-27T02:26:57.054Z,103312.11
2019-02-27T02:32:21.389Z,103315.25
2019-02-27T02:35:41.531Z,103311.77
2019-02-27T02:38:58.933Z,103310.11
2019-02-27T02:42:11.685Z,103306.55
2019-02-27T02:45:23.267Z,103301.65
2019-02-27T02:48:38.243Z,103306.02
2019-02-27T02:51:49.686Z,103302.01
2019-02-27T02:55:12.718Z,103297.35
2019-02-27T02:58:19.840Z,103291.77
2019-02-27T03:01:40.533Z,103288.21
2019-02-27T03:05:58.537Z,103284.68
2019-02-27T03:09:10.652Z,103283.40
2019-02-27T03:12:58.940Z,103272.67
2019-02-27T03:16:13.693Z,103274.86
2019-02-27T03:22:04.557Z,103274.86
2019-02-27T03:25:19.600Z,103277.42
2019-02-27T03:28:40.620Z,103278.86
2019-02-27T03:31:57.823Z,103270.74
2019-02-27T03:35:06.705Z,103274.39
2019-02-27T03:38:24.115Z,103276.64
2019-02-27T03:41:38.659Z,103279.59
2019-02-27T03:44:55.792Z,103274.21
2019-02-27T03:48:03.578Z,103273.91
2019-02-27T03:53:19.956Z,103271.61
2019-02-27T03:56:43.543Z,103266.93
2019-02-27T04:00:02.236Z,103277.23
2019-02-27T04:03:18.182Z,103271.29
2019-02-27T04:06:30.523Z,103268.65
2019-02-27T04:09:33.825Z,103269.33
2019-02-27T04:12:37.001Z,103269.76
2019-02-27T04:15:40.121Z,103272.73
2019-02-27T04:18:43.292Z,103268.27
2019-02-27T04:21:46.499Z,103263.65
2019-02-27T04:24:49.709Z,103264.31
2019-02-27T04:27:55.665Z,103263.93
2019-02-27T04:30:56.016Z,103265.79
2019-02-27T04:34:00.250Z,103261.53
2019-02-27T04:37:02.260Z,103263.53
2019-02-27T04:40:05.658Z,103264.17
2019-02-27T04:43:08.862Z,103261.63
2019-02-27T04:46:12.042Z,103258.10
2019-02-27T04:49:15.267Z,103264.39
2019-02-27T04:52:21.975Z,103262.36
2019-02-27T04:55:22.851Z,103259.45
2019-02-27T04:58:26.059Z,103250.17
2019-02-27T05:01:29.347Z,103256.57
2019-02-27T05:04:35.275Z,103260.39
2019-02-27T05:07:35.635Z,103255.47
2019-02-27T05:10:40.611Z,103259.36
2019-02-27T05:13:42.027Z,103258.71
2019-02-27T05:16:47.182Z,103263.95
2019-02-27T05:19:48.326Z,103267.93
2019-02-27T05:22:51.616Z,103266.74
2019-02-27T05:25:54.935Z,103264.42
2019-02-27T05:28:58.251Z,103267.06
2019-02-27T05:32:01.385Z,103266.12
2019-02-27T05:35:04.864Z,103270.29
2019-02-27T05:38:08.011Z,103272.27
2019-02-27T05:41:11.191Z,103267.84
2019-02-27T05:44:14.373Z,103261.76
2019-02-27T05:47:17.473Z,103269.03
2019-02-27T05:50:20.656Z,103264.23
2019-02-27T05:53:23.868Z,103265.98
2019-02-27T05:56:27.063Z,103268.65
2019-02-27T05:59:30.348Z,103270.01
2019-02-27T06:02:33.544Z,103273.10
2019-02-27T06:05:36.856Z,103274.04
2019-02-27T06:08:40.021Z,103277.79
2019-02-27T06:11:43.143Z,103275.29
2019-02-27T06:14:46.314Z,103271.07
2019-02-27T06:17:49.874Z,103278.51
2019-02-27T06:20:52.920Z,103271.49
2019-02-27T06:23:56.017Z,103272.16
2019-02-27T06:26:59.200Z,103267.63
2019-02-27T06:30:02.399Z,103263.83
2019-02-27T06:33:05.719Z,103257.91
2019-02-27T06:36:08.898Z,103262.01
2019-02-27T06:39:12.091Z,103262.29
2019-02-27T06:42:15.352Z,103264.52
2019-02-27T06:45:18.491Z,103258.34
2019-02-27T06:48:21.676Z,103251.87
2019-02-27T06:51:24.862Z,103249.37
2019-02-27T06:54:28.091Z,103255.82
2019-02-27T06:57:31.273Z,103259.25
2019-02-27T07:00:36.669Z,103261.85
2019-02-27T07:03:37.770Z,103255.66
2019-02-27T07:06:41.211Z,103250.67
2019-02-27T07:09:45.811Z,103240.96
2019-02-27T07:12:48.664Z,103239.88
2019-02-27T07:15:51.859Z,103231.61
2019-02-27T07:18:55.141Z,103227.88
2019-02-27T07:21:58.660Z,103233.81
2019-02-27T07:25:06.418Z,103223.59
2019-02-27T07:28:08.472Z,103218.11
2019-02-27T07:31:08.427Z,103221.04
2019-02-27T07:34:14.264Z,103225.07
2019-02-27T07:37:14.820Z,103229.65
2019-02-27T07:40:18.016Z,103227.44
2019-02-27T07:43:21.101Z,103225.68
2019-02-27T07:46:24.304Z,103233.27
2019-02-27T07:49:28.371Z,103230.56
2019-02-27T07:52:32.620Z,103233.58
2019-02-27T07:55:33.790Z,103234.90
2019-02-27T07:58:36.988Z,103230.22
2019-02-27T08:01:43.678Z,103227.90
2019-02-27T08:04:43.266Z,103227.21
2019-02-27T08:07:49.065Z,103224.40
2019-02-27T08:10:49.762Z,103215.33
2019-02-27T08:13:52.960Z,103213.27
2019-02-27T08:16:57.934Z,103223.64
2019-02-27T08:19:59.326Z,103224.66
2019-02-27T08:23:02.567Z,103224.63
2019-02-27T08:26:05.847Z,103221.00
2019-02-27T08:29:09.029Z,103221.01
2019-02-27T08:32:12.247Z,103222.93
2019-02-27T08:35:16.705Z,103214.56
2019-02-27T08:38:18.616Z,103213.17
2019-02-27T08:41:22.023Z,103211.60
2019-02-27T08:44:25.199Z,103207.13
2019-02-27T08:47:28.587Z,103207.41
2019-02-27T08:50:32.358Z,103197.61
2019-02-27T08:53:34.895Z,103195.84
2019-02-27T08:56:38.091Z,103190.49
2019-02-27T08:59:41.279Z,103189.29
2019-02-27T09:02:44.495Z,103179.92
2019-02-27T09:05:47.946Z,103177.89
2019-02-27T09:08:51.085Z,103173.53
2019-02-27T09:11:54.359Z,103162.88
2019-02-27T09:14:57.500Z,103161.17
2019-02-27T09:18:01.729Z,103161.31
2019-02-27T09:21:03.844Z,103150.87
2019-02-27T09:24:07.081Z,103151.28
2019-02-27T09:27:10.335Z,103150.56
2019-02-27T09:30:14.540Z,103148.63
2019-02-27T09:33:20.017Z,103148.19
2019-02-27T09:36:20.752Z,103148.59
2019-02-27T09:39:24.051Z,103147.01
2019-02-27T09:42:27.247Z,103143.04
2019-02-27T09:45:31.484Z,103138.53
2019-02-27T09:48:34.964Z,103123.89
2019-02-27T09:51:38.143Z,103114.03
2019-02-27T09:54:41.362Z,103106.99
2019-02-27T09:57:44.488Z,103103.10
2019-02-27T10:00:50.912Z,103100.01
2019-02-27T10:03:55.335Z,103089.62
2019-02-27T10:06:57.389Z,103083.32
2019-02-27T10:10:00.668Z,103078.20
2019-02-27T10:13:04.117Z,103071.50
2019-02-27T10:16:06.958Z,103063.70
2019-02-27T10:19:10.098Z,103052.71
2019-02-27T10:22:13.263Z,103053.87
2019-02-27T10:25:16.476Z,103052.15
2019-02-27T10:28:19.677Z,103045.64
2019-02-27T10:31:22.858Z,103037.04
2019-02-27T10:34:26.038Z,103031.89
2019-02-27T10:37:30.316Z,103023.96
2019-02-27T10:40:33.559Z,103024.66
2019-02-27T10:43:36.791Z,103025.10
2019-02-27T10:46:39.967Z,103022.56
2019-02-27T10:49:43.155Z,103019.25
2019-02-27T10:52:46.348Z,103013.02
2019-02-27T10:55:50.042Z,103007.18
2019-02-27T10:58:52.743Z,103003.13
2019-02-27T11:01:55.949Z,102994.18
2019-02-27T11:04:59.844Z,102987.71
2019-02-27T11:08:03.063Z,102982.75
2019-02-27T11:11:06.265Z,102971.84
2019-02-27T11:14:09.417Z,102968.43
2019-02-27T11:17:12.524Z,102959.11
2019-02-27T11:20:20.425Z,102953.26
2019-02-27T11:23:18.911Z,102944.29
2019-02-27T11:26:22.113Z,102930.59
2019-02-27T11:29:25.402Z,102926.85
2019-02-27T11:32:28.684Z,102923.83
2019-02-27T11:35:32.031Z,102911.22
2019-02-27T11:38:35.136Z,102909.65
2019-02-27T11:41:38.237Z,102904.40
2019-02-27T11:44:41.392Z,102904.85
2019-02-27T11:47:47.757Z,102902.01
2019-02-27T11:50:47.687Z,102891.31
2019-02-27T11:53:50.852Z,102881.48
2019-02-27T11:56:56.283Z,102880.20
2019-02-27T11:59:57.373Z,102878.72
2019-02-27T12:03:00.721Z,102881.99
2019-02-27T12:06:05.331Z,102876.90
2019-02-27T12:09:07.346Z,102874.77
2019-02-27T12:12:10.630Z,102868.97
2019-02-27T12:15:14.803Z,102859.70
2019-02-27T12:18:17.966Z,102849.61
2019-02-27T12:21:21.137Z,102839.85
2019-02-27T12:24:24.532Z,102838.38
2019-02-27T12:27:47.809Z,102830.96
2019-02-27T12:30:31.261Z,102826.12
2019-02-27T12:33:34.711Z,102820.05
2019-02-27T12:36:37.841Z,102813.10
2019-02-27T12:39:41.011Z,102808.42
2019-02-27T12:42:44.231Z,102798.11
2019-02-27T12:45:47.399Z,102791.62
2019-02-27T12:48:50.662Z,102786.25
2019-02-27T12:51:53.759Z,102782.94
2019-02-27T12:54:59.168Z,102774.37
2019-02-27T12:58:00.084Z,102763.25
2019-02-27T13:01:03.272Z,102755.35
2019-02-27T13:04:06.472Z,102751.93
2019-02-27T13:07:10.760Z,102755.08
2019-02-27T13:10:15.367Z,102746.16
2019-02-27T13:13:18.531Z,102737.90
2019-02-27T13:16:21.715Z,102732.65
2019-02-27T13:19:24.891Z,102732.81
2019-02-27T13:22:29.191Z,102722.98
2019-02-27T13:25:31.351Z,102715.32
2019-02-27T13:28:34.487Z,102704.62
2019-02-27T13:31:37.693Z,102695.71
2019-02-27T13:34:40.971Z,102686.40
2019-02-27T13:37:44.762Z,102688.11
2019-02-27T13:40:47.364Z,102689.17
2019-02-27T13:43:50.663Z,102686.75
2019-02-27T13:46:54.493Z,102673.19
2019-02-27T13:49:57.047Z,102667.93
2019-02-27T13:53:00.267Z,102656.59
2019-02-27T13:56:03.434Z,102656.08
2019-02-27T13:59:07.445Z,102652.56
2019-02-27T14:02:11.284Z,102645.60
2019-02-27T14:05:12.820Z,102643.17
2019-02-27T14:08:16.111Z,102641.58
2019-02-27T14:11:19.286Z,102638.93
2019-02-27T14:14:22.399Z,102638.78
2019-02-27T14:17:25.597Z,102639.89
2019-02-27T14:20:29.222Z,102638.29
2019-02-27T14:23:31.997Z,102631.67
2019-02-27T14:26:35.311Z,102633.60
2019-02-27T14:29:38.566Z,102631.71
2019-02-27T14:32:41.682Z,102627.85
2019-02-27T14:35:44.859Z,102623.33
2019-02-27T14:38:48.048Z,102619.57
2019-02-27T14:41:51.404Z,102615.59
2019-02-27T14:44:54.443Z,102614.90
2019-02-27T14:47:59.551Z,102605.84
2019-02-27T14:51:00.728Z,102604.58
2019-02-27T14:54:03.857Z,102598.46
2019-02-27T14:57:07.024Z,102584.50
2019-02-27T15:00:14.121Z,102587.62
2019-02-27T15:03:17.312Z,102589.30
2019-02-27T15:06:21.423Z,102583.97
2019-02-27T15:09:24.603Z,102578.31
2019-02-27T15:12:27.700Z,102563.48
2019-02-27T15:15:31.029Z,102571.39
2019-02-27T15:18:34.389Z,102562.81
2019-02-27T15:21:37.499Z,102549.61
2019-02-27T15:24:40.727Z,102548.29
2019-02-27T15:27:43.923Z,102545.85
2019-02-27T15:30:47.378Z,102544.54
2019-02-27T15:33:50.194Z,102542.96
2019-02-27T15:36:53.385Z,102536.49
2019-02-27T15:39:56.562Z,102526.65
2019-02-27T15:42:59.797Z,102534.66
2019-02-27T15:46:03.014Z,102527.56
2019-02-27T15:49:06.191Z,102529.80
2019-02-27T15:52:09.340Z,102528.80
2019-02-27T15:55:12.920Z,102525.62
2019-02-27T15:58:16.026Z,102516.10
2019-02-27T16:01:19.143Z,102515.69
2019-02-27T16:04:22.320Z,102512.92
2019-02-27T16:07:25.628Z,102514.01
2019-02-27T16:10:28.884Z,102519.77
2019-02-27T16:13:34.676Z,102516.67
2019-02-27T16:16:35.304Z,102511.98
2019-02-27T16:19:38.592Z,102512.01
2019-02-27T16:22:41.716Z,102509.31
2019-02-27T16:25:44.916Z,102504.65
2019-02-27T16:28:48.978Z,102503.12
2019-02-27T16:31:51.297Z,102494.41
2019-02-27T16:34:54.469Z,102486.29
2019-02-27T16:37:58.017Z,102491.36
2019-02-27T16:41:00.864Z,102493.29
2019-02-27T16:44:04.075Z,102493.28
2019-02-27T16:47:07.252Z,102501.10
2019-02-27T16:50:13.519Z,102502.51
2019-02-27T16:53:19.271Z,102503.08
2019-02-27T16:56:19.812Z,102500.70
2019-02-27T16:59:23.019Z,102497.88
2019-02-27T17:02:26.195Z,102492.99
2019-02-27T17:05:31.705Z,102492.76
2019-02-27T17:08:33.021Z,102490.06
2019-02-27T17:11:35.775Z,102497.85
2019-02-27T17:14:39.426Z,102493.54
2019-02-27T17:17:42.079Z,102496.58
2019-02-27T17:20:46.590Z,102493.43
2019-02-27T17:23:48.493Z,102490.41
2019-02-27T17:26:51.699Z,102493.24
2019-02-27T17:29:59.629Z,102500.53
2019-02-27T17:32:58.046Z,102496.13
2019-02-27T17:36:01.269Z,102497.44
2019-02-27T17:39:05.503Z,102498.08
2019-02-27T17:42:08.707Z,102504.68
2019-02-27T17:45:13.848Z,102498.30
2019-02-27T17:48:16.891Z,102495.70
2019-02-27T17:51:20.104Z,102496.10
2019-02-27T17:54:23.287Z,102498.25
2019-02-27T17:57:26.481Z,102493.97
2019-02-27T18:00:33.791Z,102489.76
2019-02-27T18:03:41.518Z,102483.68
2019-02-27T18:06:40.360Z,102487.10
2019-02-27T18:09:43.654Z,102484.83
2019-02-27T18:12:46.932Z,102490.30
2019-02-27T18:15:53.156Z,102487.18
2019-02-27T18:18:53.267Z,102494.78
2019-02-27T18:21:56.443Z,102493.35
2019-02-27T18:24:59.779Z,102500.77
2019-02-27T18:28:02.920Z,102497.55
2019-02-27T18:31:06.132Z,102497.93
2019-02-27T18:34:09.362Z,102495.26
2019-02-27T18:37:14.497Z,102489.07
2019-02-27T18:40:15.832Z,102494.28
2019-02-27T18:43:19.112Z,102490.08
2019-02-27T18:46:24.714Z,102494.22
2019-02-27T18:49:25.587Z,102495.17
2019-02-27T18:52:28.770Z,102491.11
2019-02-27T18:55:32.116Z,102483.22
2019-02-27T18:58:35.371Z,102483.76
2019-02-27T19:01:41.321Z,102480.58
2019-02-27T19:04:41.686Z,102475.62
2019-02-27T19:07:44.921Z,102477.64
2019-02-27T19:10:48.076Z,102478.16
2019-02-27T19:13:51.260Z,102468.04
2019-02-27T19:16:54.923Z,102462.12
2019-02-27T19:19:57.558Z,102455.39
2019-02-27T19:23:00.751Z,102449.69
2019-02-27T19:26:06.428Z,102451.79
2019-02-27T19:29:07.036Z,102449.52
2019-02-27T19:32:10.324Z,102444.86
2019-02-27T19:35:13.532Z,102438.73
2019-02-27T19:38:16.841Z,102433.56
2019-02-27T19:41:19.995Z,102431.04
2019-02-27T19:44:23.207Z,102432.18
2019-02-27T19:47:26.400Z,102421.77
2019-02-27T19:50:29.710Z,102422.81
2019-02-27T19:53:32.904Z,102419.35
2019-02-27T19:56:36.264Z,102417.17
2019-02-27T19:59:39.607Z,102417.59
2019-02-27T20:02:42.787Z,102420.21
2019-02-27T20:05:46.007Z,102418.73
2019-02-27T20:08:49.149Z,102416.32
2019-02-27T20:11:52.295Z,102419.26
2019-02-27T20:14:55.495Z,102413.75
2019-02-27T20:17:58.764Z,102413.37
2019-02-27T20:21:02.316Z,102413.59
2019-02-27T20:24:14.226Z,102412.68
2019-02-27T20:27:08.632Z,102414.80
2019-02-27T20:30:15.338Z,102404.79
2019-02-27T20:33:18.550Z,102403.74
2019-02-27T20:36:21.736Z,102407.01
2019-02-27T20:39:25.947Z,102409.84
2019-02-27T20:42:29.112Z,102410.23
2019-02-27T20:45:32.363Z,102408.07
2019-02-27T20:48:39.532Z,102406.27
2019-02-27T20:51:39.982Z,102400.98
2019-02-27T20:54:43.201Z,102407.28
2019-02-27T20:57:46.307Z,102406.80
2019-02-27T21:00:49.395Z,102407.20
2019-02-27T21:03:52.491Z,102415.70
2019-02-27T21:06:55.694Z,102411.36
2019-02-27T21:09:59.006Z,102410.57
2019-02-27T21:13:02.308Z,102406.90
2019-02-27T21:16:09.337Z,102409.28
2019-02-27T21:19:08.731Z,102409.03
2019-02-27T21:22:11.893Z,102400.98
2019-02-27T21:25:15.734Z,102393.23
2019-02-27T21:28:21.179Z,102391.89
2019-02-27T21:31:26.613Z,102383.12
2019-02-27T21:34:24.843Z,102379.00
2019-02-27T21:37:28.049Z,102377.88
2019-02-27T21:40:33.395Z,102379.81
2019-02-27T21:43:34.459Z,102373.87
2019-02-27T21:46:37.571Z,102380.07
2019-02-27T21:49:40.719Z,102383.80
2019-02-27T21:52:43.927Z,102384.09
2019-02-27T21:55:47.127Z,102382.54
2019-02-27T21:58:50.458Z,102379.75
2019-02-27T22:01:56.305Z,102383.03
2019-02-27T22:04:56.823Z,102382.35
2019-02-27T22:08:00.102Z,102381.35
2019-02-27T22:11:03.409Z,102385.56
2019-02-27T22:14:06.584Z,102383.47
2019-02-27T22:17:09.690Z,102380.25
2019-02-27T22:20:12.930Z,102379.84
2019-02-27T22:23:16.091Z,102370.53
2019-02-27T22:26:19.267Z,102370.20
2019-02-27T22:29:25.258Z,102366.64
2019-02-27T22:32:25.656Z,102365.39
2019-02-27T22:35:30.359Z,102360.90
2019-02-27T22:38:32.022Z,102362.45
2019-02-27T22:41:35.163Z,102362.23
2019-02-27T22:44:38.312Z,102356.89
2019-02-27T22:47:41.460Z,102353.39
2019-02-27T22:50:44.531Z,102360.85
2019-02-27T22:53:47.725Z,102355.92
2019-02-27T22:56:51.720Z,102352.57
2019-02-27T22:59:54.085Z,102354.93
2019-02-27T23:02:57.203Z,102359.24
2019-02-27T23:06:00.387Z,102356.69
2019-02-27T23:09:04.583Z,102354.17
2019-02-27T23:12:08.538Z,102352.72
2019-02-27T23:15:10.890Z,102354.05
2019-02-27T23:18:14.099Z,102360.44
2019-02-27T23:21:17.295Z,102362.04
2019-02-27T23:24:20.516Z,102360.58
2019-02-27T23:27:25.957Z,102362.05
2019-02-27T23:30:26.858Z,102354.05
2019-02-27T23:33:35.867Z,102349.34
2019-02-27T23:36:33.967Z,102343.22
2019-02-27T23:39:39.605Z,102338.91
2019-02-27T23:42:40.159Z,102332.98
2019-02-27T23:45:44.500Z,102335.22
2019-02-27T23:48:46.649Z,102334.84
2019-02-27T23:51:49.960Z,102329.16
2019-02-27T23:54:53.136Z,102325.09
2019-02-27T23:57:57.765Z,102319.91
